Time;durP1;ratioP1;P1;durP2;ratioP2;P2;SDS_P1;SDS_P2;PMS_P1;PMS_P2;Temp;Humidity;BMP_temperature;BMP_pressure;BME280_temperature;BME280_humidity;BME280_pressure;Samples;Min_cycle;Max_cycle;Signal;HPM_P1;HPM_P2
2021/12/09 00:00:59;;;;;;;43.53;26.40;;;;;;;0.67;100.00;96977.88;10430692;28;20124;-84
2021/12/09 00:06:05;;;;;;;40.67;26.23;;;;;;;0.67;100.00;96975.22;10410359;28;20076;-87
2021/12/09 00:11:10;;;;;;;43.22;25.50;;;;;;;0.67;100.00;96973.41;10407304;28;20045;-86
2021/12/09 00:16:13;;;;;;;48.30;28.90;;;;;;;0.61;100.00;96977.44;10413964;28;20132;-86
2021/12/09 00:21:16;;;;;;;76.85;31.88;;;;;;;0.47;100.00;96953.97;10409707;28;20141;-85
2021/12/09 00:26:21;;;;;;;75.20;32.83;;;;;;;0.35;100.00;96940.00;10413186;28;20072;-88
2021/12/09 00:31:25;;;;;;;75.57;34.80;;;;;;;0.36;100.00;96938.16;10423727;28;20486;-87
2021/12/09 00:36:32;;;;;;;70.03;33.75;;;;;;;0.34;100.00;96932.16;10425476;28;20072;-88
2021/12/09 00:41:37;;;;;;;65.13;32.63;;;;;;;0.37;100.00;96955.75;10412989;28;20409;-87
2021/12/09 00:46:40;;;;;;;60.75;31.85;;;;;;;0.40;100.00;96966.06;10411174;28;20145;-87
2021/12/09 00:51:44;;;;;;;62.20;32.28;;;;;;;0.39;100.00;96978.47;10411569;28;20041;-88
2021/12/09 00:56:48;;;;;;;148.40;33.90;;;;;;;0.43;100.00;96965.78;10410327;28;20065;-86
2021/12/09 01:01:52;;;;;;;348.08;38.28;;;;;;;0.44;100.00;96972.75;10427304;28;20544;-86
2021/12/09 01:06:55;;;;;;;272.30;39.10;;;;;;;0.47;100.00;96971.69;10416074;28;20814;-86
2021/12/09 01:12:00;;;;;;;389.52;38.33;;;;;;;0.43;100.00;96969.28;10408031;28;20526;-86
2021/12/09 01:17:04;;;;;;;651.33;43.58;;;;;;;0.38;100.00;96981.25;10421891;28;20071;-87
2021/12/09 01:22:08;;;;;;;244.35;38.42;;;;;;;0.40;100.00;96995.22;10410320;28;20049;-86
2021/12/09 01:27:13;;;;;;;331.85;38.45;;;;;;;0.39;100.00;96988.25;10411082;28;20493;-87
2021/12/09 01:32:16;;;;;;;1169.55;50.28;;;;;;;0.34;100.00;96993.09;10410297;28;20037;-88
2021/12/09 01:37:19;;;;;;;698.95;43.15;;;;;;;0.41;100.00;96991.59;10411292;28;20042;-88
2021/12/09 01:42:23;;;;;;;531.92;40.80;;;;;;;0.38;100.00;96997.97;10422546;28;20072;-87
2021/12/09 01:47:28;;;;;;;882.17;47.70;;;;;;;0.44;100.00;97004.56;10412186;28;20042;-87
2021/12/09 01:52:31;;;;;;;527.83;39.80;;;;;;;0.41;100.00;97007.50;10412873;28;20037;-89
2021/12/09 01:57:35;;;;;;;166.77;32.92;;;;;;;0.49;100.00;96999.72;10411691;28;20037;-87
2021/12/09 02:02:39;;;;;;;143.40;31.77;;;;;;;0.45;100.00;96977.09;10409856;28;20096;-88
2021/12/09 02:08:00;;;;;;;215.18;31.27;;;;;;;0.46;100.00;96968.19;10417359;28;20053;-88
2021/12/09 02:13:05;;;;;;;629.13;34.15;;;;;;;0.42;100.00;96961.47;10418023;28;20046;-84
2021/12/09 02:18:11;;;;;;;644.90;34.47;;;;;;;0.38;100.00;96978.63;10416033;28;20045;-86
2021/12/09 02:23:17;;;;;;;139.90;30.27;;;;;;;0.40;100.00;96971.38;10419475;28;20088;-86
2021/12/09 02:28:21;;;;;;;51.20;26.88;;;;;;;0.37;100.00;96979.56;10417687;28;20413;-88
2021/12/09 02:33:24;;;;;;;50.05;25.27;;;;;;;0.34;100.00;96993.09;10409364;28;20063;-88
2021/12/09 02:38:29;;;;;;;58.00;25.20;;;;;;;0.34;100.00;97006.31;10434332;28;20053;-87
2021/12/09 02:43:32;;;;;;;63.22;25.02;;;;;;;0.36;100.00;96988.50;10439857;28;20068;-87
2021/12/09 02:48:35;;;;;;;46.20;24.92;;;;;;;0.36;100.00;96968.13;10424495;28;20285;-86
2021/12/09 02:53:40;;;;;;;43.35;23.77;;;;;;;0.33;100.00;96970.22;10416674;28;20033;-86
2021/12/09 02:58:44;;;;;;;40.30;22.60;;;;;;;0.35;100.00;96984.16;10419044;28;20041;-86
2021/12/09 03:03:51;;;;;;;39.72;23.23;;;;;;;0.36;100.00;96999.09;10396094;28;20286;-86
2021/12/09 03:08:56;;;;;;;35.33;21.40;;;;;;;0.37;100.00;96995.47;10410458;28;20106;-86
2021/12/09 03:13:59;;;;;;;38.20;21.65;;;;;;;0.38;100.00;97007.75;10414070;28;20045;-86
2021/12/09 03:19:06;;;;;;;37.92;21.92;;;;;;;0.38;100.00;96997.16;10411206;28;21344;-86
2021/12/09 03:24:13;;;;;;;29.17;19.02;;;;;;;0.40;100.00;96997.88;10405681;28;20079;-86
2021/12/09 03:29:18;;;;;;;35.03;19.98;;;;;;;0.39;100.00;97020.84;10420056;28;20069;-86
2021/12/09 03:34:24;;;;;;;39.05;21.13;;;;;;;0.36;100.00;97005.22;10410527;28;20041;-86
2021/12/09 03:39:33;;;;;;;39.08;21.15;;;;;;;0.35;100.00;97008.88;10418837;28;20045;-86
2021/12/09 03:44:38;;;;;;;45.45;22.63;;;;;;;0.34;100.00;96996.59;10410484;28;20042;-86
2021/12/09 03:49:42;;;;;;;108.47;23.67;;;;;;;0.31;100.00;96999.50;10409686;28;20053;-86
2021/12/09 03:54:46;;;;;;;42.25;21.65;;;;;;;0.33;100.00;97015.25;10418605;28;20457;-85
2021/12/09 03:59:49;;;;;;;43.10;22.63;;;;;;;0.33;100.00;97033.78;10416624;28;20048;-86
2021/12/09 04:04:52;;;;;;;36.95;20.70;;;;;;;0.33;100.00;97029.34;10458514;22;20163;-59
2021/12/09 04:09:57;;;;;;;49.13;20.48;;;;;;;0.33;100.00;97015.25;10461579;28;20079;-59
2021/12/09 04:15:00;;;;;;;98.63;21.83;;;;;;;0.34;100.00;97014.28;10458598;28;20412;-55
2021/12/09 04:20:05;;;;;;;40.78;22.40;;;;;;;0.34;100.00;97023.06;10460376;28;20044;-59
2021/12/09 04:25:09;;;;;;;38.72;21.00;;;;;;;0.33;100.00;97031.13;10460175;28;20047;-59
2021/12/09 04:30:14;;;;;;;40.20;22.10;;;;;;;0.33;100.00;97015.25;10459536;28;20053;-60
2021/12/09 04:35:17;;;;;;;391.27;25.90;;;;;;;0.29;100.00;97026.09;10458543;28;20068;-61
2021/12/09 04:40:22;;;;;;;513.33;27.90;;;;;;;0.23;100.00;97010.75;10480015;28;20048;-61
2021/12/09 04:45:25;;;;;;;193.10;27.23;;;;;;;0.14;100.00;97007.06;10455780;28;20045;-60
2021/12/09 04:50:28;;;;;;;165.07;27.25;;;;;;;0.09;100.00;97014.56;10459151;28;20195;-60
2021/12/09 04:55:34;;;;;;;279.98;30.38;;;;;;;0.01;100.00;97037.38;10457701;28;20182;-60
2021/12/09 05:00:38;;;;;;;180.68;29.60;;;;;;;-0.06;100.00;97039.69;10459685;28;20049;-61
2021/12/09 05:05:45;;;;;;;73.45;28.27;;;;;;;-0.05;100.00;97034.25;10480507;22;20136;-65
2021/12/09 05:11:00;;;;;;;67.10;27.60;;;;;;;-0.05;100.00;97055.44;10470588;28;20049;-65
2021/12/09 05:16:06;;;;;;;80.25;26.50;;;;;;;-0.06;100.00;97045.81;10478300;28;20055;-62
2021/12/09 05:21:11;;;;;;;95.93;27.60;;;;;;;-0.06;100.00;97048.44;10470758;28;20139;-62
2021/12/09 05:26:18;;;;;;;100.55;30.25;;;;;;;-0.06;100.00;97048.44;10475757;28;20456;-63
2021/12/09 05:36:46;;;;;;;80.72;31.50;;;;;;;-0.17;100.00;97032.63;10468611;28;20056;-62
2021/12/09 05:41:56;;;;;;;85.43;33.15;;;;;;;-0.17;100.00;97051.16;10471008;28;20059;-62
2021/12/09 05:47:02;;;;;;;83.85;32.60;;;;;;;-0.18;100.00;97057.44;10470345;28;20049;-61
2021/12/09 05:52:06;;;;;;;74.90;30.80;;;;;;;-0.17;100.00;97083.78;10470330;28;20318;-64
2021/12/09 05:57:10;;;;;;;68.68;30.10;;;;;;;-0.20;100.00;97080.56;10469796;28;20494;-61
2021/12/09 06:02:16;;;;;;;71.07;30.90;;;;;;;-0.21;100.00;97079.69;10471081;28;20055;-64
2021/12/09 06:07:19;;;;;;;71.25;31.02;;;;;;;-0.16;100.00;97089.91;10470031;28;20057;-62
2021/12/09 06:12:24;;;;;;;67.57;29.48;;;;;;;-0.16;100.00;97103.13;10470424;28;20923;-63
2021/12/09 06:17:27;;;;;;;67.00;29.40;;;;;;;-0.16;100.00;97100.47;10472132;28;20127;-63
2021/12/09 06:22:30;;;;;;;69.13;28.92;;;;;;;-0.17;100.00;97098.81;10482403;28;20049;-60
2021/12/09 06:27:35;;;;;;;73.75;30.42;;;;;;;-0.16;100.00;97105.78;10474138;28;20046;-63
2021/12/09 06:32:38;;;;;;;76.38;31.58;;;;;;;-0.13;100.00;97116.13;10469340;28;20049;-64
2021/12/09 06:37:44;;;;;;;77.18;31.10;;;;;;;-0.14;100.00;97103.03;10469993;28;20090;-61
2021/12/09 06:42:50;;;;;;;91.63;32.05;;;;;;;-0.16;100.00;97089.91;10470549;28;20171;-62
2021/12/09 06:47:54;;;;;;;94.95;34.28;;;;;;;-0.17;100.00;97096.16;10496578;28;20126;-64
2021/12/09 06:52:57;;;;;;;101.60;34.10;;;;;;;-0.16;100.00;97106.63;10502041;28;20512;-65
2021/12/09 06:58:02;;;;;;;95.30;32.78;;;;;;;-0.16;100.00;97119.00;10510935;28;20587;-63
2021/12/09 07:03:05;;;;;;;99.80;34.17;;;;;;;-0.16;100.00;97121.66;10473447;28;20098;-63
2021/12/09 07:08:08;;;;;;;99.65;34.10;;;;;;;-0.14;100.00;97122.38;10475439;28;20059;-62
2021/12/09 07:13:13;;;;;;;100.35;33.45;;;;;;;-0.17;100.00;97127.91;10476388;28;20622;-64
2021/12/09 07:18:16;;;;;;;110.18;35.35;;;;;;;-0.19;100.00;97112.19;10476801;28;20044;-63
2021/12/09 07:23:19;;;;;;;110.97;34.88;;;;;;;-0.20;100.00;97107.03;10475565;28;20048;-65
2021/12/09 07:28:23;;;;;;;116.32;35.95;;;;;;;-0.17;100.00;97104.94;10490430;28;20059;-65
2021/12/09 07:33:26;;;;;;;103.65;35.13;;;;;;;-0.13;100.00;97121.41;10476328;28;20040;-64
2021/12/09 07:38:29;;;;;;;87.93;32.17;;;;;;;-0.13;100.00;97117.94;10476049;28;20074;-63
2021/12/09 07:43:34;;;;;;;89.03;32.78;;;;;;;-0.08;100.00;97123.69;10472376;28;20167;-64
2021/12/09 07:48:37;;;;;;;81.13;29.58;;;;;;;-0.05;100.00;97123.44;10475366;28;20179;-64
2021/12/09 07:53:41;;;;;;;67.22;28.30;;;;;;;-0.01;100.00;97131.00;10475813;28;20032;-64
2021/12/09 07:58:46;;;;;;;59.03;26.50;;;;;;;0.05;100.00;97131.47;10472875;28;20167;-64
2021/12/09 08:03:49;;;;;;;59.83;25.63;;;;;;;0.12;100.00;97129.97;10482308;28;20078;-67
2021/12/09 08:08:52;;;;;;;53.60;23.25;;;;;;;0.18;100.00;97132.09;10477419;28;20045;-62
2021/12/09 08:13:57;;;;;;;48.50;24.10;;;;;;;0.23;100.00;97145.00;10473100;28;20154;-66
2021/12/09 08:19:00;;;;;;;48.05;24.30;;;;;;;0.28;100.00;97162.19;10477398;28;20055;-61
2021/12/09 08:24:05;;;;;;;55.78;25.85;;;;;;;0.30;100.00;97164.69;10493886;28;20044;-62
2021/12/09 08:29:09;;;;;;;55.53;24.98;;;;;;;0.30;100.00;97168.16;10478062;28;20055;-64
2021/12/09 08:34:12;;;;;;;61.00;26.27;;;;;;;0.29;100.00;97157.72;10471073;28;20143;-62
2021/12/09 08:39:22;;;;;;;71.07;28.10;;;;;;;0.26;100.00;97153.50;10474055;28;20174;-63
2021/12/09 08:44:27;;;;;;;78.20;28.88;;;;;;;0.28;100.00;97156.88;10474415;28;20053;-63
2021/12/09 08:49:30;;;;;;;117.07;29.77;;;;;;;0.26;100.00;97156.16;10474190;28;20510;-61
2021/12/09 08:54:33;;;;;;;198.65;32.03;;;;;;;0.19;100.00;97157.63;10472986;28;20045;-63
2021/12/09 08:59:37;;;;;;;504.63;36.35;;;;;;;0.16;100.00;97157.91;10473156;28;20048;-62
2021/12/09 09:04:42;;;;;;;327.70;34.92;;;;;;;0.18;100.00;97160.41;10469585;28;20451;-59
2021/12/09 09:09:45;;;;;;;664.08;40.05;;;;;;;0.18;100.00;97177.13;10476403;28;20059;-60
2021/12/09 09:14:49;;;;;;;313.95;33.42;;;;;;;0.18;100.00;97185.06;10477227;28;21320;-61
2021/12/09 09:19:53;;;;;;;282.80;34.85;;;;;;;0.21;100.00;97184.84;10481340;28;20492;-62
2021/12/09 09:24:56;;;;;;;113.30;32.78;;;;;;;0.27;100.00;97179.03;10473232;28;20037;-63
2021/12/09 09:30:00;;;;;;;76.28;31.75;;;;;;;0.36;100.00;97184.53;10470389;28;20296;-60
2021/12/09 09:35:03;;;;;;;69.07;29.77;;;;;;;0.44;100.00;97195.31;10470654;28;20052;-62
2021/12/09 09:40:10;;;;;;;71.28;28.83;;;;;;;0.50;100.00;97202.78;10474034;28;20056;-60
2021/12/09 09:45:16;;;;;;;71.60;29.08;;;;;;;0.56;100.00;97196.94;10475928;28;20142;-63
2021/12/09 09:57:14;;;;;;;67.13;29.08;;;;;;;0.71;100.00;97197.47;10482800;28;20032;-62
2021/12/09 10:02:19;;;;;;;66.10;27.67;;;;;;;0.77;100.00;97188.16;10480106;28;20084;-61
2021/12/09 10:07:24;;;;;;;68.50;27.23;;;;;;;0.80;100.00;97177.28;10475711;28;20037;-62
2021/12/09 10:12:28;;;;;;;58.03;27.33;;;;;;;0.83;100.00;97169.09;10499241;28;20048;-63
2021/12/09 10:17:32;;;;;;;59.20;26.15;;;;;;;0.86;100.00;97163.53;10516238;28;20106;-62
2021/12/09 10:22:43;;;;;;;64.18;26.40;;;;;;;0.88;100.00;97163.38;10511122;28;20112;-60
2021/12/09 10:27:57;;;;;;;63.65;26.27;;;;;;;0.89;100.00;97149.16;10519996;28;20058;-62
2021/12/09 10:33:04;;;;;;;67.30;27.13;;;;;;;0.86;100.00;97139.66;10522005;28;20040;-60
2021/12/09 10:38:07;;;;;;;74.28;29.42;;;;;;;0.84;100.00;97135.44;10520875;28;20048;-61
2021/12/09 10:43:18;;;;;;;73.65;28.58;;;;;;;0.86;100.00;97147.63;10516944;28;20050;-59
2021/12/09 10:48:26;;;;;;;85.85;29.58;;;;;;;0.87;100.00;97140.50;10518295;28;20848;-61
2021/12/09 10:53:35;;;;;;;85.40;29.23;;;;;;;0.87;100.00;97159.03;10518652;28;20043;-61
2021/12/09 10:58:39;;;;;;;75.60;29.17;;;;;;;0.87;100.00;97169.66;10519549;28;21383;-60
2021/12/09 11:03:49;;;;;;;86.43;29.98;;;;;;;0.80;100.00;97160.56;10509194;22;20138;-58
2021/12/09 11:08:53;;;;;;;115.63;32.05;;;;;;;0.75;100.00;97163.59;10448945;28;20127;-54
2021/12/09 11:14:00;;;;;;;121.13;33.03;;;;;;;0.75;100.00;97163.59;10446964;28;20923;-56
2021/12/09 11:19:10;;;;;;;104.03;32.70;;;;;;;0.78;100.00;97168.63;10450557;28;20528;-56
2021/12/09 11:24:16;;;;;;;100.85;31.88;;;;;;;0.81;100.00;97165.72;10449002;28;20851;-54
2021/12/09 11:29:22;;;;;;;109.70;34.25;;;;;;;0.83;100.00;97176.19;10450628;28;20075;-57
2021/12/09 11:34:33;;;;;;;96.60;31.77;;;;;;;0.81;100.00;97168.38;10449071;28;20048;-56
2021/12/09 11:39:54;;;;;;;111.55;33.22;;;;;;;0.81;100.00;97165.72;10449779;28;20047;-53
2021/12/09 11:44:58;;;;;;;107.80;33.03;;;;;;;0.81;100.00;97168.38;10446499;28;20497;-57
2021/12/09 11:50:02;;;;;;;100.50;32.88;;;;;;;0.86;100.00;97158.22;10449378;28;20040;-57
2021/12/09 11:55:08;;;;;;;106.20;33.67;;;;;;;0.90;100.00;97158.78;10448790;28;20051;-59
2021/12/09 12:11:43;;;;;;;99.70;32.25;;;;;;;1.07;100.00;97160.00;10448828;28;20048;-56
2021/12/09 12:17:04;;;;;;;102.35;33.20;;;;;;;1.09;100.00;97171.31;10243006;28;20210;-53
2021/12/09 12:22:44;;;;;;;104.20;33.33;;;;;;;1.12;100.00;97171.03;10414634;28;20097;-57
2021/12/09 12:33:20;;;;;;;102.43;35.40;;;;;;;1.24;100.00;97179.75;10446782;28;20059;-60
2021/12/09 12:38:50;;;;;;;104.65;35.85;;;;;;;1.31;100.00;97188.84;10448130;28;20063;-58
2021/12/09 12:44:05;;;;;;;120.25;37.67;;;;;;;1.37;100.00;97179.50;10446026;28;20051;-61
2021/12/09 12:49:17;;;;;;;110.78;37.53;;;;;;;1.42;100.00;97193.22;10444899;28;20047;-61
2021/12/09 12:54:27;;;;;;;;;;;;;;;1.46;100.00;97189.34;10447076;28;20025;-59
2021/12/09 13:00:04;;;;;;;110.35;37.05;;;;;;;1.53;100.00;97181.66;10446782;28;19935;-59
2021/12/09 13:05:25;;;;;;;116.55;38.40;;;;;;;1.55;100.00;97171.75;10445949;28;20067;-59
2021/12/09 13:10:46;;;;;;;112.35;39.83;;;;;;;1.61;100.00;97170.34;10446144;28;20055;-58
2021/12/09 13:16:05;;;;;;;118.17;38.30;;;;;;;1.67;100.00;97159.22;10446413;28;20050;-56
2021/12/09 13:21:33;;;;;;;114.53;38.63;;;;;;;1.73;100.00;97153.34;10442767;28;20463;-59
2021/12/09 13:27:18;;;;;;;112.82;40.13;;;;;;;1.68;100.00;97151.09;10444048;28;20505;-55
2021/12/09 13:38:16;;;;;;;115.07;41.15;;;;;;;1.78;100.00;97185.66;10441028;28;20497;-58
2021/12/09 13:49:00;;;;;;;100.15;36.67;;;;;;;1.83;100.00;97190.53;10445096;28;20071;-56
2021/12/09 13:54:18;;;;;;;97.95;35.90;;;;;;;1.84;100.00;97181.59;10443010;28;20175;-58
2021/12/09 13:59:23;;;;;;;109.95;39.30;;;;;;;1.85;100.00;97194.72;10455273;28;20143;-63
2021/12/09 14:04:35;;;;;;;134.40;44.15;;;;;;;1.84;100.00;97192.22;10452679;28;20118;-59
2021/12/09 14:09:40;;;;;;;121.25;43.40;;;;;;;1.87;100.00;97191.09;10453209;28;20068;-63
2021/12/09 14:14:57;;;;;;;100.00;39.15;;;;;;;1.89;100.00;97195.28;10453654;28;20071;-62
2021/12/09 14:20:06;;;;;;;105.63;40.67;;;;;;;1.91;100.00;97189.88;10452782;28;20049;-61
2021/12/09 14:25:12;;;;;;;106.18;39.10;;;;;;;1.93;100.00;97191.41;10448200;28;20509;-62
2021/12/09 14:30:18;;;;;;;91.72;35.75;;;;;;;1.96;100.00;97184.97;10450404;28;20171;-60
2021/12/09 14:35:24;;;;;;;89.72;35.00;;;;;;;1.96;100.00;97169.88;10449950;28;20052;-58
2021/12/09 14:40:36;;;;;;;86.97;34.47;;;;;;;1.96;100.00;97193.78;10447999;28;20052;-60
2021/12/09 14:45:56;;;;;;;84.32;33.65;;;;;;;1.95;100.00;97217.81;10451262;28;20040;-60
2021/12/09 14:51:11;;;;;;;90.88;34.47;;;;;;;1.93;100.00;97225.09;10450069;28;20110;-59
2021/12/09 14:56:24;;;;;;;96.30;35.47;;;;;;;1.91;100.00;97225.22;10451387;28;20123;-57
2021/12/09 15:01:34;;;;;;;94.47;35.63;;;;;;;1.91;100.00;97224.41;10444162;28;20094;-57
2021/12/09 15:06:40;;;;;;;101.30;37.03;;;;;;;1.82;100.00;97221.56;10445124;28;20064;-58
2021/12/09 15:11:45;;;;;;;110.78;38.22;;;;;;;1.82;100.00;97221.56;10444033;28;20048;-57
2021/12/09 15:17:07;;;;;;;124.20;38.90;;;;;;;1.80;100.00;97228.84;10445817;28;20093;-54
2021/12/09 15:22:17;;;;;;;120.03;38.58;;;;;;;1.77;100.00;97229.09;10444354;28;20151;-57
2021/12/09 15:27:20;;;;;;;108.20;38.45;;;;;;;1.75;100.00;97233.72;10444630;28;20048;-57
2021/12/09 15:32:25;;;;;;;108.97;38.97;;;;;;;1.76;100.00;97227.41;10441319;28;20056;-58
2021/12/09 15:37:33;;;;;;;100.05;37.28;;;;;;;1.75;100.00;97225.75;10447310;28;20032;-62
2021/12/09 15:42:37;;;;;;;92.30;36.40;;;;;;;1.75;100.00;97215.13;10441728;28;20048;-62
2021/12/09 15:47:41;;;;;;;94.90;35.53;;;;;;;1.73;100.00;97211.75;10445253;28;20106;-59
2021/12/09 15:52:50;;;;;;;78.25;33.17;;;;;;;1.74;100.00;97221.41;10444716;28;20201;-57
2021/12/09 15:57:56;;;;;;;81.70;34.00;;;;;;;1.71;100.00;97221.66;10445795;28;20098;-62
2021/12/09 16:03:03;;;;;;;79.18;32.95;;;;;;;1.72;100.00;97228.66;10441791;28;21050;-62
2021/12/09 16:08:08;;;;;;;71.60;32.08;;;;;;;1.71;100.00;97221.66;10444982;28;20185;-62
2021/12/09 16:13:12;;;;;;;82.63;34.00;;;;;;;1.71;100.00;97240.25;10443135;28;20630;-58
2021/12/09 16:18:17;;;;;;;79.15;32.42;;;;;;;1.70;100.00;97230.63;10443431;28;20037;-60
2021/12/09 16:23:20;;;;;;;80.25;32.10;;;;;;;1.69;100.00;97226.28;10461589;28;20044;-62
2021/12/09 16:28:23;;;;;;;85.05;35.17;;;;;;;1.70;100.00;97233.28;10448018;28;20059;-63
2021/12/09 16:33:29;;;;;;;83.22;34.95;;;;;;;1.69;100.00;97248.38;10446048;28;20041;-62
2021/12/09 16:38:37;;;;;;;86.85;33.65;;;;;;;1.68;100.00;97237.88;10444666;28;20040;-62
2021/12/09 16:43:40;;;;;;;86.05;32.97;;;;;;;1.69;100.00;97242.22;10441070;28;20052;-60
2021/12/09 16:48:47;;;;;;;80.78;32.88;;;;;;;1.68;100.00;97236.06;10443505;28;20481;-61
2021/12/09 16:53:53;;;;;;;78.70;34.47;;;;;;;1.68;100.00;97238.72;10454396;28;20128;-61
2021/12/09 16:59:00;;;;;;;72.20;32.65;;;;;;;1.67;100.00;97234.38;10442623;28;20048;-59
2021/12/09 17:04:08;;;;;;;78.45;34.50;;;;;;;1.68;100.00;97235.22;10443883;22;20404;-64
2021/12/09 17:09:13;;;;;;;80.20;34.40;;;;;;;1.67;100.00;97237.03;10417452;28;20065;-62
2021/12/09 17:14:18;;;;;;;77.18;34.72;;;;;;;1.69;100.00;97239.56;10423041;28;20499;-63
2021/12/09 17:19:23;;;;;;;77.40;34.22;;;;;;;1.69;100.00;97243.06;10420811;28;20123;-64
2021/12/09 17:24:27;;;;;;;87.03;34.17;;;;;;;1.68;100.00;97241.38;10412056;28;20526;-65
2021/12/09 17:29:32;;;;;;;85.70;35.40;;;;;;;1.68;100.00;97229.91;10419017;28;20777;-64
2021/12/09 17:34:38;;;;;;;89.60;35.95;;;;;;;1.70;100.00;97233.28;10419329;28;20041;-63
2021/12/09 17:39:41;;;;;;;88.10;34.67;;;;;;;1.70;100.00;97235.94;10417230;28;20042;-64
2021/12/09 17:44:45;;;;;;;82.22;34.58;;;;;;;1.70;100.00;97227.97;10421302;28;20045;-65
2021/12/09 17:49:51;;;;;;;98.75;38.78;;;;;;;1.68;100.00;97227.28;10418727;28;20777;-63
2021/12/09 17:54:55;;;;;;;104.55;39.50;;;;;;;1.67;100.00;97228.25;10423625;28;20132;-66
2021/12/09 17:59:58;;;;;;;98.28;39.80;;;;;;;1.68;100.00;97229.91;10420208;28;20077;-63
2021/12/09 18:05:28;;;;;;;108.03;40.97;;;;;;;1.66;100.00;97237.19;10418059;28;20057;-65
2021/12/09 18:10:33;;;;;;;109.78;40.70;;;;;;;1.65;100.00;97241.63;10414137;28;20063;-65
2021/12/09 18:15:39;;;;;;;104.68;39.40;;;;;;;1.64;100.00;97239.13;10420566;28;20056;-65
2021/12/09 18:20:43;;;;;;;92.78;36.88;;;;;;;1.64;100.00;97239.13;10416396;28;20095;-67
2021/12/09 18:25:49;;;;;;;85.30;35.83;;;;;;;1.64;100.00;97244.44;10426763;28;20420;-64
2021/12/09 18:30:55;;;;;;;91.68;36.90;;;;;;;1.64;100.00;97249.75;10419590;28;20056;-67
2021/12/09 18:36:06;;;;;;;79.53;35.97;;;;;;;1.64;100.00;97244.44;10409458;28;20045;-64
2021/12/09 18:41:09;;;;;;;98.03;41.63;;;;;;;1.64;100.00;97239.97;10414019;28;20055;-64
2021/12/09 18:46:12;;;;;;;83.25;36.08;;;;;;;1.65;100.00;97240.81;10420429;28;20045;-66
2021/12/09 18:51:20;;;;;;;78.47;34.25;;;;;;;1.64;100.00;97244.44;10427368;28;20045;-64
2021/12/09 18:56:28;;;;;;;72.80;34.17;;;;;;;1.61;100.00;97240.25;10426282;28;20037;-68
2021/12/09 19:01:34;;;;;;;67.82;32.85;;;;;;;1.63;100.00;97248.91;10427330;28;20893;-68
2021/12/09 19:06:42;;;;;;;63.70;31.38;;;;;;;1.64;100.00;97247.09;10419037;28;20072;-67
2021/12/09 19:11:46;;;;;;;61.65;29.95;;;;;;;1.63;100.00;97245.41;10424417;28;20076;-68
2021/12/09 19:16:55;;;;;;;55.08;28.70;;;;;;;1.62;100.00;97243.72;10422571;28;20412;-65
2021/12/09 19:22:00;;;;;;;66.38;32.60;;;;;;;1.63;100.00;97248.06;10424373;28;20074;-68
2021/12/09 19:27:04;;;;;;;42.92;20.35;;;;;;;1.59;100.00;97252.78;10424739;28;20052;-66
2021/12/09 19:32:08;;;;;;;45.03;23.15;;;;;;;1.57;100.00;97265.34;10421913;28;20456;-68
2021/12/09 19:37:13;;;;;;;25.75;16.13;;;;;;;1.54;100.00;97266.47;10425774;28;20044;-64
2021/12/09 19:42:16;;;;;;;38.22;20.75;;;;;;;1.57;100.00;97270.66;10420800;28;20175;-68
2021/12/09 19:47:19;;;;;;;29.45;16.50;;;;;;;1.58;100.00;97266.22;10424979;28;20080;-70
2021/12/09 19:52:24;;;;;;;34.95;19.20;;;;;;;1.59;100.00;97262.59;10427649;28;20655;-68
2021/12/09 19:57:27;;;;;;;34.45;20.20;;;;;;;1.58;100.00;97256.41;10423696;28;20044;-70
2021/12/09 20:02:30;;;;;;;41.33;21.15;;;;;;;1.58;100.00;97261.72;10415674;28;20060;-70
2021/12/09 20:07:35;;;;;;;34.10;19.83;;;;;;;1.56;100.00;97253.06;10424366;28;20037;-70
2021/12/09 20:12:40;;;;;;;45.10;20.90;;;;;;;1.54;100.00;97255.84;10421147;28;20055;-68
2021/12/09 20:17:44;;;;;;;31.73;19.08;;;;;;;1.57;100.00;97256.56;10423281;28;20132;-74
2021/12/09 20:22:48;;;;;;;34.70;20.15;;;;;;;1.56;100.00;97252.22;10424438;28;20673;-72
2021/12/09 20:27:53;;;;;;;35.22;21.40;;;;;;;1.55;100.00;97251.38;10424391;28;21362;-71
2021/12/09 20:32:57;;;;;;;36.78;21.63;;;;;;;1.52;100.00;97235.75;10424052;28;20041;-67
2021/12/09 20:38:02;;;;;;;30.73;17.92;;;;;;;1.46;100.00;97231.81;10422919;28;20053;-68
2021/12/09 20:43:06;;;;;;;32.85;18.45;;;;;;;1.47;100.00;97229.97;10422964;28;20053;-71
2021/12/09 20:48:10;;;;;;;32.63;18.35;;;;;;;1.43;100.00;97224.09;10422099;28;20067;-69
2021/12/09 20:53:16;;;;;;;39.60;19.15;;;;;;;1.39;100.00;97220.03;10422667;28;20142;-70
2021/12/09 20:58:22;;;;;;;33.55;18.75;;;;;;;1.35;100.00;97214.16;10421764;28;20049;-68
2021/12/09 21:03:26;;;;;;;30.30;17.02;;;;;;;1.30;100.00;97195.13;10421118;28;20413;-68
2021/12/09 21:08:31;;;;;;;32.55;16.65;;;;;;;1.25;100.00;97191.19;10420375;28;20071;-67
2021/12/09 21:13:36;;;;;;;23.80;13.57;;;;;;;1.22;100.00;97203.78;10420665;28;20041;-69
2021/12/09 21:18:45;;;;;;;23.80;13.27;;;;;;;1.21;100.00;97190.63;10424459;28;20033;-68
2021/12/09 21:23:50;;;;;;;23.15;14.25;;;;;;;1.13;100.00;97193.09;10418887;28;20134;-67
2021/12/09 21:28:58;;;;;;;20.88;12.77;;;;;;;1.08;100.00;97183.72;10422254;28;20144;-68
2021/12/09 21:34:04;;;;;;;21.75;12.43;;;;;;;1.06;100.00;97180.34;10452676;28;20048;-67
2021/12/09 21:39:12;;;;;;;25.60;13.98;;;;;;;1.04;100.00;97184.13;10458667;28;20060;-68
2021/12/09 21:44:16;;;;;;;25.60;15.32;;;;;;;0.96;100.00;97179.47;10442517;28;20396;-70
2021/12/09 21:49:20;;;;;;;28.65;15.57;;;;;;;0.88;100.00;97182.78;10420571;28;20051;-68
2021/12/09 21:54:25;;;;;;;27.17;15.90;;;;;;;0.81;100.00;97180.78;10421316;28;20776;-67
2021/12/09 21:59:32;;;;;;;33.08;16.83;;;;;;;0.72;100.00;97174.47;10417861;28;20041;-69
2021/12/09 22:04:36;;;;;;;33.92;15.80;;;;;;;0.65;100.00;97176.78;10417214;28;20951;-68
2021/12/09 22:09:40;;;;;;;27.60;15.07;;;;;;;0.60;100.00;97166.56;10421352;28;20118;-68
2021/12/09 22:14:44;;;;;;;28.50;15.73;;;;;;;0.53;100.00;97156.63;10408385;28;20052;-66
2021/12/09 22:19:48;;;;;;;27.30;14.52;;;;;;;0.49;100.00;97142.78;10424811;28;20037;-64
2021/12/09 22:24:53;;;;;;;25.23;13.65;;;;;;;0.42;100.00;97131.00;10425695;28;20075;-65
2021/12/09 22:29:56;;;;;;;23.92;13.02;;;;;;;0.36;100.00;97128.91;10428838;28;20046;-64
2021/12/09 22:34:59;;;;;;;29.58;13.82;;;;;;;0.32;100.00;97115.06;10425313;28;20056;-67
2021/12/09 22:40:08;;;;;;;30.17;13.98;;;;;;;0.27;100.00;97112.81;10426392;28;20044;-67
2021/12/09 22:45:11;;;;;;;28.13;14.75;;;;;;;0.18;100.00;97110.91;10422118;28;20049;-68
2021/12/09 22:50:17;;;;;;;29.10;14.90;;;;;;;0.14;100.00;97101.56;10424161;28;20037;-65
2021/12/09 22:55:28;;;;;;;28.38;15.52;;;;;;;0.11;100.00;97107.13;10422522;28;20053;-66
2021/12/09 23:00:52;;;;;;;27.08;14.32;;;;;;;0.07;100.00;97100.38;10423235;28;20606;-65
2021/12/09 23:05:58;;;;;;;25.83;13.63;;;;;;;0.05;100.00;97097.06;10430254;28;20509;-64
2021/12/09 23:11:06;;;;;;;27.35;13.27;;;;;;;-0.03;100.00;97092.38;10414017;28;20045;-65
2021/12/09 23:16:12;;;;;;;22.55;11.55;;;;;;;-0.08;100.00;97081.31;10425860;28;20049;-65
2021/12/09 23:21:16;;;;;;;21.27;12.57;;;;;;;-0.14;100.00;97072.09;10426726;28;20501;-65
2021/12/09 23:26:22;;;;;;;29.10;12.18;;;;;;;-0.19;100.00;97063.72;10427709;28;20056;-65
2021/12/09 23:31:26;;;;;;;25.10;11.90;;;;;;;-0.21;100.00;97055.06;10423003;28;20052;-65
2021/12/09 23:36:33;;;;;;;26.50;11.88;;;;;;;-0.23;100.00;97046.38;10422762;28;20443;-65
2021/12/09 23:41:40;;;;;;;22.90;10.75;;;;;;;-0.25;100.00;97029.78;10423808;28;20049;-65
2021/12/09 23:46:44;;;;;;;22.85;11.77;;;;;;;-0.27;100.00;97021.13;10423355;28;20114;-66